Main page
METAR-TAF:

METAR-TAF

Airports :

Dyersburg Regional Airport

Dyersburg, Tennessee, United States

latitude: 36-00N, longitude: 089-24W, elevation: 338 ft

Current weather observation

The report was made 15 minutes ago, at 17:56 UTC
Wind 12 mph from the South with gusts up to 16 mph
Temperature 72°F
Humidity 60%
Pressure 30.02 in. Hg
Visibility: 10 miles
Clear sky

METAR: KDYR 031756Z AUTO 17010G14KT 10SM CLR 22/14 A3002 RMK AO2 SLP169 6//// T02220139 10222 20089 56012

Time: 12:11 (18:11 UTC)


TAF: missing

Weather observations and forecasts of more than 4000 airports (METAR and TAF reports).

The available stations are represented by yellow and red dots on the map.

Hover mouse over dot to see the name of the station.

Then click to see weather observations and forecasts.

To change the map : click on the green buttons with a black cross to zoom in, on the green button with a dash to zoom out, or on the green arrows for adjacent maps.


METAR-TAF: